Flight Information

DEPARTURE
HELENA, MT
Elevation:
3877
Runways:
5/23 - 4644x75 - ASPH-F
9/27 - 9000x150 - ASPH-G
10/28 - 1584x75 - TURF
17/35 - 2989x75 - ASPH-F
ATIS:
120.4
Ground:
121.9
Tower:
HELENA TOWER 118.3
DESTINATION
BUTTE, MT
Elevation:
5550
TPA:
6550 (est.)
Runways:
15/33 - 9000x150 - ASPH-G
12/30 - 5100x75 - ASPH-G
CTAF:
123.000


44.5 NM209° True-16° Var192° HDG

Flight Plan:
(click to file on line)

1. Type
2. Aircraft Identification
3. Aircraft Type / Special Equipment
4. True Airspeed
kts
5. Departure Airport
(ICAO code)
6. Arriving Airport
(ICAO code)
7. Cruising Altitude
ft
8. Alternate Airport
(ICAO code)
9. Route of Flight
10. Remarks


00:00:00 Departure ATIS: Destination ATIS:

Clearance Limit:
Route:
Altitude: Expect in minutes
Frequency:
Transponder: (7500 Hijack / 7600 Lost Comms / 7700 Emergency)


KHLN 181153Z 25006KT 10SM CLR 19/06 A3022 RMK AO2 SLP207 T01890061 10239 20183 50004
Time: 2022-08-18T11:53:00Z
1660826933
Winds: 250 @ 6 kts
Visibility: 10.0 sm
Clouds (AGL): CLR
Temperature: 18.9 C
Dew Point: 6.1 C
Pressure: 30.221457 in Hgbr

KBTM 181153Z AUTO 00000KT 10SM CLR 11/04 A3031 RMK AO2 SLP204 T01110039 10189 20100 50000
Time: 2022-08-18T11:53:00Z
1660826933
Winds: calm
Visibility: 10.0 sm
Clouds (AGL): CLR
Temperature: 11.1 C
Dew Point: 3.9 C
Pressure: 30.31004 in Hgbr


Notes:

Data extracted from FAA Digital Chart Supplement. Effective: 0901Z Thursday, 27 JAN 2022 to 0900z Thursday, 24 MAR 2022
Current ATIS data is provided courtisy of PilotEdge.